sensor_id;sensor_type;location;lat;lon;timestamp;P1;durP1;ratioP1;P2;durP2;ratioP2
71091;SDS011;58751;50.708;7.134;2023-03-01T00:01:01;14.20;;;10.60;;
71091;SDS011;58751;50.708;7.134;2023-03-01T00:03:26;16.43;;;10.70;;
71091;SDS011;58751;50.708;7.134;2023-03-01T00:05:52;18.83;;;12.17;;
71091;SDS011;58751;50.708;7.134;2023-03-01T00:08:17;18.73;;;13.20;;
71091;SDS011;58751;50.708;7.134;2023-03-01T00:10:42;15.10;;;10.40;;
71091;SDS011;58751;50.708;7.134;2023-03-01T00:13:07;14.13;;;10.10;;
71091;SDS011;58751;50.708;7.134;2023-03-01T00:15:37;18.80;;;10.37;;
71091;SDS011;58751;50.708;7.134;2023-03-01T00:18:02;19.08;;;11.38;;
71091;SDS011;58751;50.708;7.134;2023-03-01T00:20:27;13.47;;;9.37;;
71091;SDS011;58751;50.708;7.134;2023-03-01T00:22:52;13.37;;;9.70;;
71091;SDS011;58751;50.708;7.134;2023-03-01T00:25:18;15.00;;;10.30;;
71091;SDS011;58751;50.708;7.134;2023-03-01T00:27:43;13.30;;;9.87;;
71091;SDS011;58751;50.708;7.134;2023-03-01T00:30:08;15.40;;;10.60;;
71091;SDS011;58751;50.708;7.134;2023-03-01T00:32:35;15.70;;;9.93;;
71091;SDS011;58751;50.708;7.134;2023-03-01T00:35:00;15.10;;;10.13;;
71091;SDS011;58751;50.708;7.134;2023-03-01T00:37:26;14.03;;;9.70;;
71091;SDS011;58751;50.708;7.134;2023-03-01T00:39:51;16.80;;;10.80;;
71091;SDS011;58751;50.708;7.134;2023-03-01T00:42:16;18.53;;;11.23;;
71091;SDS011;58751;50.708;7.134;2023-03-01T00:44:41;15.20;;;10.13;;
71091;SDS011;58751;50.708;7.134;2023-03-01T00:47:07;13.93;;;10.40;;
71091;SDS011;58751;50.708;7.134;2023-03-01T00:49:34;10.87;;;8.87;;
71091;SDS011;58751;50.708;7.134;2023-03-01T00:51:59;16.25;;;10.27;;
71091;SDS011;58751;50.708;7.134;2023-03-01T00:54:24;13.53;;;8.97;;
71091;SDS011;58751;50.708;7.134;2023-03-01T00:56:49;15.73;;;9.50;;
71091;SDS011;58751;50.708;7.134;2023-03-01T00:59:14;10.57;;;9.43;;
71091;SDS011;58751;50.708;7.134;2023-03-01T01:01:40;12.60;;;9.77;;
71091;SDS011;58751;50.708;7.134;2023-03-01T01:04:05;12.30;;;10.20;;
71091;SDS011;58751;50.708;7.134;2023-03-01T01:06:33;13.65;;;9.75;;
71091;SDS011;58751;50.708;7.134;2023-03-01T01:08:59;11.07;;;8.70;;
71091;SDS011;58751;50.708;7.134;2023-03-01T01:11:25;12.83;;;9.50;;
71091;SDS011;58751;50.708;7.134;2023-03-01T01:13:51;11.73;;;8.90;;
71091;SDS011;58751;50.708;7.134;2023-03-01T01:16:17;11.80;;;9.47;;
71091;SDS011;58751;50.708;7.134;2023-03-01T01:18:42;12.70;;;8.68;;
71091;SDS011;58751;50.708;7.134;2023-03-01T01:21:09;11.87;;;9.63;;
71091;SDS011;58751;50.708;7.134;2023-03-01T01:23:36;12.48;;;9.95;;
71091;SDS011;58751;50.708;7.134;2023-03-01T01:26:03;10.63;;;8.43;;
71091;SDS011;58751;50.708;7.134;2023-03-01T01:28:28;12.93;;;9.68;;
71091;SDS011;58751;50.708;7.134;2023-03-01T01:30:53;12.77;;;9.20;;
71091;SDS011;58751;50.708;7.134;2023-03-01T01:33:19;16.10;;;10.53;;
71091;SDS011;58751;50.708;7.134;2023-03-01T01:35:45;13.30;;;8.50;;
71091;SDS011;58751;50.708;7.134;2023-03-01T01:38:10;16.05;;;9.80;;
71091;SDS011;58751;50.708;7.134;2023-03-01T01:40:43;11.90;;;9.80;;
71091;SDS011;58751;50.708;7.134;2023-03-01T01:43:09;17.67;;;9.98;;
71091;SDS011;58751;50.708;7.134;2023-03-01T01:45:37;13.07;;;9.98;;
71091;SDS011;58751;50.708;7.134;2023-03-01T01:48:03;11.80;;;8.63;;
71091;SDS011;58751;50.708;7.134;2023-03-01T01:50:28;14.15;;;10.15;;
71091;SDS011;58751;50.708;7.134;2023-03-01T01:52:54;13.80;;;9.37;;
71091;SDS011;58751;50.708;7.134;2023-03-01T01:55:20;18.63;;;10.10;;
71091;SDS011;58751;50.708;7.134;2023-03-01T01:57:48;24.80;;;10.95;;
71091;SDS011;58751;50.708;7.134;2023-03-01T02:00:15;18.52;;;10.65;;
71091;SDS011;58751;50.708;7.134;2023-03-01T02:02:40;12.73;;;9.48;;
71091;SDS011;58751;50.708;7.134;2023-03-01T02:05:09;12.00;;;10.60;;
71091;SDS011;58751;50.708;7.134;2023-03-01T02:07:36;15.30;;;10.57;;
71091;SDS011;58751;50.708;7.134;2023-03-01T02:10:02;17.30;;;10.80;;
71091;SDS011;58751;50.708;7.134;2023-03-01T02:12:28;14.40;;;10.60;;
71091;SDS011;58751;50.708;7.134;2023-03-01T02:14:55;13.47;;;10.17;;
71091;SDS011;58751;50.708;7.134;2023-03-01T02:17:23;12.13;;;9.43;;
71091;SDS011;58751;50.708;7.134;2023-03-01T02:19:52;11.82;;;8.90;;
71091;SDS011;58751;50.708;7.134;2023-03-01T02:22:20;20.15;;;10.40;;
71091;SDS011;58751;50.708;7.134;2023-03-01T02:24:48;18.42;;;10.77;;
71091;SDS011;58751;50.708;7.134;2023-03-01T02:27:18;20.58;;;11.90;;
71091;SDS011;58751;50.708;7.134;2023-03-01T02:29:45;14.50;;;10.77;;
71091;SDS011;58751;50.708;7.134;2023-03-01T02:32:11;13.35;;;9.57;;
71091;SDS011;58751;50.708;7.134;2023-03-01T02:34:37;11.43;;;8.23;;
71091;SDS011;58751;50.708;7.134;2023-03-01T02:37:03;12.47;;;9.90;;
71091;SDS011;58751;50.708;7.134;2023-03-01T02:39:30;12.82;;;10.00;;
71091;SDS011;58751;50.708;7.134;2023-03-01T02:41:56;16.52;;;9.82;;
71091;SDS011;58751;50.708;7.134;2023-03-01T02:44:22;12.57;;;9.20;;
71091;SDS011;58751;50.708;7.134;2023-03-01T02:46:49;12.57;;;9.40;;
71091;SDS011;58751;50.708;7.134;2023-03-01T02:49:18;14.20;;;9.77;;
71091;SDS011;58751;50.708;7.134;2023-03-01T02:51:45;13.63;;;10.20;;
71091;SDS011;58751;50.708;7.134;2023-03-01T02:54:15;10.90;;;8.43;;
71091;SDS011;58751;50.708;7.134;2023-03-01T02:56:42;14.60;;;9.73;;
71091;SDS011;58751;50.708;7.134;2023-03-01T02:59:08;10.80;;;9.07;;
71091;SDS011;58751;50.708;7.134;2023-03-01T03:01:33;14.40;;;9.13;;
71091;SDS011;58751;50.708;7.134;2023-03-01T03:04:01;12.63;;;9.10;;
71091;SDS011;58751;50.708;7.134;2023-03-01T03:06:26;11.00;;;9.00;;
71091;SDS011;58751;50.708;7.134;2023-03-01T03:08:51;12.53;;;9.10;;
71091;SDS011;58751;50.708;7.134;2023-03-01T03:11:16;11.93;;;8.83;;
71091;SDS011;58751;50.708;7.134;2023-03-01T03:13:41;13.67;;;9.67;;
71091;SDS011;58751;50.708;7.134;2023-03-01T03:16:07;16.20;;;11.03;;
71091;SDS011;58751;50.708;7.134;2023-03-01T03:18:32;14.37;;;9.90;;
71091;SDS011;58751;50.708;7.134;2023-03-01T03:20:58;12.27;;;9.13;;
71091;SDS011;58751;50.708;7.134;2023-03-01T03:23:24;15.43;;;9.18;;
71091;SDS011;58751;50.708;7.134;2023-03-01T03:25:49;16.83;;;10.60;;
71091;SDS011;58751;50.708;7.134;2023-03-01T03:28:14;18.37;;;10.50;;
71091;SDS011;58751;50.708;7.134;2023-03-01T03:30:40;13.57;;;9.63;;
71091;SDS011;58751;50.708;7.134;2023-03-01T03:33:06;12.67;;;9.40;;
71091;SDS011;58751;50.708;7.134;2023-03-01T03:35:34;14.20;;;8.73;;
71091;SDS011;58751;50.708;7.134;2023-03-01T03:38:05;16.40;;;10.57;;
71091;SDS011;58751;50.708;7.134;2023-03-01T03:40:34;13.02;;;8.95;;
71091;SDS011;58751;50.708;7.134;2023-03-01T03:43:00;11.50;;;8.13;;
71091;SDS011;58751;50.708;7.134;2023-03-01T03:45:25;14.87;;;9.60;;
71091;SDS011;58751;50.708;7.134;2023-03-01T03:47:50;15.03;;;9.27;;
71091;SDS011;58751;50.708;7.134;2023-03-01T03:50:16;13.50;;;9.20;;
71091;SDS011;58751;50.708;7.134;2023-03-01T03:52:42;15.15;;;9.60;;
71091;SDS011;58751;50.708;7.134;2023-03-01T03:55:10;24.50;;;14.67;;
71091;SDS011;58751;50.708;7.134;2023-03-01T03:57:35;19.95;;;13.05;;
71091;SDS011;58751;50.708;7.134;2023-03-01T04:00:00;17.83;;;11.33;;
71091;SDS011;58751;50.708;7.134;2023-03-01T04:02:25;16.00;;;11.17;;
71091;SDS011;58751;50.708;7.134;2023-03-01T04:04:51;13.73;;;10.10;;
71091;SDS011;58751;50.708;7.134;2023-03-01T04:07:16;15.70;;;11.00;;
71091;SDS011;58751;50.708;7.134;2023-03-01T04:09:41;13.60;;;10.43;;
71091;SDS011;58751;50.708;7.134;2023-03-01T04:12:08;15.47;;;10.20;;
71091;SDS011;58751;50.708;7.134;2023-03-01T04:14:33;12.30;;;9.77;;
71091;SDS011;58751;50.708;7.134;2023-03-01T04:16:58;19.50;;;10.77;;
71091;SDS011;58751;50.708;7.134;2023-03-01T04:19:23;14.33;;;11.07;;
71091;SDS011;58751;50.708;7.134;2023-03-01T04:21:49;13.90;;;10.20;;
71091;SDS011;58751;50.708;7.134;2023-03-01T04:24:14;19.37;;;11.70;;
71091;SDS011;58751;50.708;7.134;2023-03-01T04:26:39;14.40;;;10.10;;
71091;SDS011;58751;50.708;7.134;2023-03-01T04:29:06;13.57;;;10.00;;
71091;SDS011;58751;50.708;7.134;2023-03-01T04:31:31;14.65;;;9.70;;
71091;SDS011;58751;50.708;7.134;2023-03-01T04:33:56;13.27;;;9.60;;
71091;SDS011;58751;50.708;7.134;2023-03-01T04:36:22;16.77;;;10.23;;
71091;SDS011;58751;50.708;7.134;2023-03-01T04:38:47;18.67;;;10.18;;
71091;SDS011;58751;50.708;7.134;2023-03-01T04:41:13;18.17;;;10.87;;
71091;SDS011;58751;50.708;7.134;2023-03-01T04:43:38;14.83;;;10.73;;
71091;SDS011;58751;50.708;7.134;2023-03-01T04:46:06;17.93;;;9.83;;
71091;SDS011;58751;50.708;7.134;2023-03-01T04:48:31;15.27;;;9.88;;
71091;SDS011;58751;50.708;7.134;2023-03-01T04:50:57;12.43;;;9.43;;
71091;SDS011;58751;50.708;7.134;2023-03-01T04:53:23;13.70;;;10.15;;
71091;SDS011;58751;50.708;7.134;2023-03-01T04:55:48;19.53;;;10.47;;
71091;SDS011;58751;50.708;7.134;2023-03-01T04:58:13;20.53;;;10.70;;
71091;SDS011;58751;50.708;7.134;2023-03-01T05:00:38;15.50;;;10.73;;
71091;SDS011;58751;50.708;7.134;2023-03-01T05:03:05;12.40;;;9.70;;
71091;SDS011;58751;50.708;7.134;2023-03-01T05:05:31;13.85;;;9.77;;
71091;SDS011;58751;50.708;7.134;2023-03-01T05:07:57;12.80;;;10.23;;
71091;SDS011;58751;50.708;7.134;2023-03-01T05:10:23;18.65;;;11.55;;
71091;SDS011;58751;50.708;7.134;2023-03-01T05:12:48;11.93;;;9.30;;
71091;SDS011;58751;50.708;7.134;2023-03-01T05:15:13;18.10;;;10.40;;
71091;SDS011;58751;50.708;7.134;2023-03-01T05:17:39;12.10;;;9.20;;
71091;SDS011;58751;50.708;7.134;2023-03-01T05:20:06;18.07;;;11.60;;
71091;SDS011;58751;50.708;7.134;2023-03-01T05:22:31;15.23;;;10.05;;
71091;SDS011;58751;50.708;7.134;2023-03-01T05:24:56;13.47;;;9.70;;
71091;SDS011;58751;50.708;7.134;2023-03-01T05:27:21;16.27;;;10.27;;
71091;SDS011;58751;50.708;7.134;2023-03-01T05:29:46;17.97;;;11.60;;
71091;SDS011;58751;50.708;7.134;2023-03-01T05:32:12;13.83;;;10.00;;
71091;SDS011;58751;50.708;7.134;2023-03-01T05:34:37;16.27;;;11.70;;
71091;SDS011;58751;50.708;7.134;2023-03-01T05:37:03;15.53;;;10.30;;
71091;SDS011;58751;50.708;7.134;2023-03-01T05:39:29;11.85;;;9.65;;
71091;SDS011;58751;50.708;7.134;2023-03-01T05:41:55;14.80;;;10.23;;
71091;SDS011;58751;50.708;7.134;2023-03-01T05:44:20;12.38;;;11.07;;
71091;SDS011;58751;50.708;7.134;2023-03-01T05:46:46;15.83;;;10.27;;
71091;SDS011;58751;50.708;7.134;2023-03-01T05:49:11;17.00;;;11.63;;
71091;SDS011;58751;50.708;7.134;2023-03-01T05:51:36;16.30;;;11.30;;
71091;SDS011;58751;50.708;7.134;2023-03-01T05:54:03;14.33;;;10.37;;
71091;SDS011;58751;50.708;7.134;2023-03-01T05:56:28;12.45;;;9.35;;
71091;SDS011;58751;50.708;7.134;2023-03-01T05:58:53;18.13;;;10.63;;
71091;SDS011;58751;50.708;7.134;2023-03-01T06:01:18;16.17;;;9.87;;
71091;SDS011;58751;50.708;7.134;2023-03-01T06:03:44;14.27;;;10.80;;
71091;SDS011;58751;50.708;7.134;2023-03-01T06:06:09;14.20;;;10.37;;
71091;SDS011;58751;50.708;7.134;2023-03-01T06:08:34;16.63;;;11.17;;
71091;SDS011;58751;50.708;7.134;2023-03-01T06:11:01;16.67;;;10.07;;
71091;SDS011;58751;50.708;7.134;2023-03-01T06:13:26;16.58;;;9.95;;
71091;SDS011;58751;50.708;7.134;2023-03-01T06:15:51;16.63;;;10.37;;
71091;SDS011;58751;50.708;7.134;2023-03-01T06:18:16;14.90;;;10.20;;
71091;SDS011;58751;50.708;7.134;2023-03-01T06:20:42;15.97;;;11.50;;
71091;SDS011;58751;50.708;7.134;2023-03-01T06:23:07;15.40;;;10.90;;
71091;SDS011;58751;50.708;7.134;2023-03-01T06:25:32;18.53;;;10.60;;
71091;SDS011;58751;50.708;7.134;2023-03-01T06:27:59;18.87;;;11.13;;
71091;SDS011;58751;50.708;7.134;2023-03-01T06:30:25;16.52;;;10.80;;
71091;SDS011;58751;50.708;7.134;2023-03-01T06:32:50;14.40;;;10.80;;
71091;SDS011;58751;50.708;7.134;2023-03-01T06:35:16;15.27;;;11.13;;
71091;SDS011;58751;50.708;7.134;2023-03-01T06:37:41;16.33;;;11.93;;
71091;SDS011;58751;50.708;7.134;2023-03-01T06:40:07;12.97;;;9.60;;
71091;SDS011;58751;50.708;7.134;2023-03-01T06:42:33;15.03;;;10.43;;
71091;SDS011;58751;50.708;7.134;2023-03-01T06:44:59;20.23;;;10.70;;
71091;SDS011;58751;50.708;7.134;2023-03-01T06:47:24;16.77;;;10.80;;
71091;SDS011;58751;50.708;7.134;2023-03-01T06:49:50;19.07;;;9.60;;
71091;SDS011;58751;50.708;7.134;2023-03-01T06:52:15;15.17;;;11.13;;
71091;SDS011;58751;50.708;7.134;2023-03-01T06:54:40;12.70;;;9.60;;
71091;SDS011;58751;50.708;7.134;2023-03-01T06:57:05;14.03;;;10.17;;
71091;SDS011;58751;50.708;7.134;2023-03-01T06:59:30;15.40;;;10.63;;
71091;SDS011;58751;50.708;7.134;2023-03-01T07:01:57;12.33;;;9.83;;
71091;SDS011;58751;50.708;7.134;2023-03-01T07:04:22;13.90;;;10.65;;
71091;SDS011;58751;50.708;7.134;2023-03-01T07:06:47;15.93;;;9.67;;
71091;SDS011;58751;50.708;7.134;2023-03-01T07:09:12;16.27;;;11.00;;
71091;SDS011;58751;50.708;7.134;2023-03-01T07:11:38;19.37;;;12.60;;
71091;SDS011;58751;50.708;7.134;2023-03-01T07:14:03;14.03;;;10.50;;
71091;SDS011;58751;50.708;7.134;2023-03-01T07:16:28;16.50;;;11.97;;
71091;SDS011;58751;50.708;7.134;2023-03-01T07:18:55;15.80;;;11.37;;
71091;SDS011;58751;50.708;7.134;2023-03-01T07:21:20;17.15;;;11.18;;
71091;SDS011;58751;50.708;7.134;2023-03-01T07:23:46;13.17;;;10.33;;
71091;SDS011;58751;50.708;7.134;2023-03-01T07:26:12;19.55;;;11.30;;
71091;SDS011;58751;50.708;7.134;2023-03-01T07:28:37;17.10;;;11.07;;
71091;SDS011;58751;50.708;7.134;2023-03-01T07:31:02;14.97;;;10.43;;
71091;SDS011;58751;50.708;7.134;2023-03-01T07:33:27;16.60;;;11.20;;
71091;SDS011;58751;50.708;7.134;2023-03-01T07:35:57;15.30;;;12.73;;
71091;SDS011;58751;50.708;7.134;2023-03-01T07:38:22;15.25;;;10.77;;
71091;SDS011;58751;50.708;7.134;2023-03-01T07:40:47;11.30;;;9.70;;
71091;SDS011;58751;50.708;7.134;2023-03-01T07:43:12;13.00;;;10.07;;
71091;SDS011;58751;50.708;7.134;2023-03-01T07:45:37;13.83;;;10.43;;
71091;SDS011;58751;50.708;7.134;2023-03-01T07:48:03;15.10;;;11.00;;
71091;SDS011;58751;50.708;7.134;2023-03-01T07:50:28;12.63;;;9.77;;
71091;SDS011;58751;50.708;7.134;2023-03-01T07:52:55;11.27;;;9.80;;
71091;SDS011;58751;50.708;7.134;2023-03-01T07:55:20;18.35;;;12.60;;
71091;SDS011;58751;50.708;7.134;2023-03-01T07:57:45;16.43;;;11.73;;
71091;SDS011;58751;50.708;7.134;2023-03-01T08:00:11;15.07;;;10.63;;
71091;SDS011;58751;50.708;7.134;2023-03-01T08:02:36;16.50;;;11.90;;
71091;SDS011;58751;50.708;7.134;2023-03-01T08:05:02;13.93;;;11.23;;
71091;SDS011;58751;50.708;7.134;2023-03-01T08:07:27;13.57;;;11.40;;
71091;SDS011;58751;50.708;7.134;2023-03-01T08:09:53;11.30;;;10.10;;
71091;SDS011;58751;50.708;7.134;2023-03-01T08:12:19;14.00;;;10.93;;
71091;SDS011;58751;50.708;7.134;2023-03-01T08:14:44;12.37;;;11.00;;
71091;SDS011;58751;50.708;7.134;2023-03-01T08:17:09;15.10;;;11.60;;
71091;SDS011;58751;50.708;7.134;2023-03-01T08:19:34;15.20;;;12.30;;
71091;SDS011;58751;50.708;7.134;2023-03-01T08:22:00;19.33;;;13.83;;
71091;SDS011;58751;50.708;7.134;2023-03-01T08:24:26;14.20;;;12.32;;
71091;SDS011;58751;50.708;7.134;2023-03-01T08:26:52;15.13;;;12.07;;
71091;SDS011;58751;50.708;7.134;2023-03-01T08:29:18;14.20;;;11.07;;
71091;SDS011;58751;50.708;7.134;2023-03-01T08:31:43;16.10;;;13.77;;
71091;SDS011;58751;50.708;7.134;2023-03-01T08:34:09;17.93;;;11.33;;
71091;SDS011;58751;50.708;7.134;2023-03-01T08:36:36;13.63;;;10.77;;
71091;SDS011;58751;50.708;7.134;2023-03-01T08:39:01;13.75;;;11.00;;
71091;SDS011;58751;50.708;7.134;2023-03-01T08:41:26;13.23;;;11.83;;
71091;SDS011;58751;50.708;7.134;2023-03-01T08:43:53;15.43;;;11.87;;
71091;SDS011;58751;50.708;7.134;2023-03-01T08:46:18;15.48;;;10.82;;
71091;SDS011;58751;50.708;7.134;2023-03-01T08:48:44;16.87;;;12.50;;
71091;SDS011;58751;50.708;7.134;2023-03-01T08:51:09;14.87;;;11.90;;
71091;SDS011;58751;50.708;7.134;2023-03-01T08:53:35;16.73;;;12.95;;
71091;SDS011;58751;50.708;7.134;2023-03-01T08:56:00;15.23;;;11.70;;
71091;SDS011;58751;50.708;7.134;2023-03-01T08:58:25;17.87;;;12.27;;
71091;SDS011;58751;50.708;7.134;2023-03-01T09:00:52;13.53;;;12.13;;
71091;SDS011;58751;50.708;7.134;2023-03-01T09:03:17;13.07;;;11.60;;
71091;SDS011;58751;50.708;7.134;2023-03-01T09:05:42;14.53;;;12.63;;
71091;SDS011;58751;50.708;7.134;2023-03-01T09:08:08;14.63;;;12.47;;
71091;SDS011;58751;50.708;7.134;2023-03-01T09:10:33;18.87;;;12.63;;
71091;SDS011;58751;50.708;7.134;2023-03-01T09:13:01;17.90;;;11.18;;
71091;SDS011;58751;50.708;7.134;2023-03-01T09:15:27;13.93;;;12.37;;
71091;SDS011;58751;50.708;7.134;2023-03-01T09:17:53;13.90;;;12.40;;
71091;SDS011;58751;50.708;7.134;2023-03-01T09:20:18;14.25;;;11.63;;
71091;SDS011;58751;50.708;7.134;2023-03-01T09:22:44;13.80;;;11.83;;
71091;SDS011;58751;50.708;7.134;2023-03-01T09:25:09;14.23;;;11.77;;
71091;SDS011;58751;50.708;7.134;2023-03-01T09:27:34;11.80;;;10.60;;
71091;SDS011;58751;50.708;7.134;2023-03-01T09:29:59;13.10;;;11.40;;
71091;SDS011;58751;50.708;7.134;2023-03-01T09:32:25;12.00;;;10.70;;
71091;SDS011;58751;50.708;7.134;2023-03-01T09:34:51;13.80;;;11.67;;
71091;SDS011;58751;50.708;7.134;2023-03-01T09:37:16;12.25;;;10.95;;
71091;SDS011;58751;50.708;7.134;2023-03-01T09:39:42;12.93;;;10.60;;
71091;SDS011;58751;50.708;7.134;2023-03-01T09:42:10;13.13;;;10.77;;
71091;SDS011;58751;50.708;7.134;2023-03-01T09:44:38;15.45;;;11.55;;
71091;SDS011;58751;50.708;7.134;2023-03-01T09:47:04;12.55;;;11.18;;
71091;SDS011;58751;50.708;7.134;2023-03-01T09:49:30;13.00;;;11.00;;
71091;SDS011;58751;50.708;7.134;2023-03-01T09:51:59;16.45;;;11.68;;
71091;SDS011;58751;50.708;7.134;2023-03-01T09:54:25;14.73;;;10.38;;
71091;SDS011;58751;50.708;7.134;2023-03-01T09:56:53;13.73;;;11.80;;
71091;SDS011;58751;50.708;7.134;2023-03-01T09:59:23;15.35;;;11.73;;
71091;SDS011;58751;50.708;7.134;2023-03-01T10:01:51;13.15;;;10.52;;
71091;SDS011;58751;50.708;7.134;2023-03-01T10:04:32;13.82;;;11.00;;
71091;SDS011;58751;50.708;7.134;2023-03-01T10:07:05;14.40;;;11.30;;
71091;SDS011;58751;50.708;7.134;2023-03-01T10:09:32;12.15;;;9.90;;
71091;SDS011;58751;50.708;7.134;2023-03-01T10:11:58;13.52;;;11.23;;
71091;SDS011;58751;50.708;7.134;2023-03-01T10:14:28;11.50;;;10.15;;
71091;SDS011;58751;50.708;7.134;2023-03-01T10:16:58;11.85;;;10.25;;
71091;SDS011;58751;50.708;7.134;2023-03-01T10:19:34;12.85;;;11.30;;
71091;SDS011;58751;50.708;7.134;2023-03-01T10:22:05;15.02;;;10.90;;
71091;SDS011;58751;50.708;7.134;2023-03-01T10:24:34;15.32;;;11.48;;
71091;SDS011;58751;50.708;7.134;2023-03-01T10:27:01;14.00;;;11.17;;
71091;SDS011;58751;50.708;7.134;2023-03-01T10:29:30;14.35;;;11.35;;
71091;SDS011;58751;50.708;7.134;2023-03-01T10:31:56;13.02;;;11.63;;
71091;SDS011;58751;50.708;7.134;2023-03-01T10:34:21;11.83;;;10.27;;
71091;SDS011;58751;50.708;7.134;2023-03-01T10:36:48;13.63;;;11.25;;
71091;SDS011;58751;50.708;7.134;2023-03-01T10:39:16;12.93;;;10.35;;
71091;SDS011;58751;50.708;7.134;2023-03-01T10:41:52;11.77;;;10.50;;
71091;SDS011;58751;50.708;7.134;2023-03-01T10:44:34;12.75;;;10.90;;
71091;SDS011;58751;50.708;7.134;2023-03-01T10:47:00;17.40;;;11.57;;
71091;SDS011;58751;50.708;7.134;2023-03-01T10:49:25;13.93;;;11.03;;
71091;SDS011;58751;50.708;7.134;2023-03-01T10:51:51;11.87;;;10.57;;
71091;SDS011;58751;50.708;7.134;2023-03-01T10:54:19;14.50;;;11.53;;
71091;SDS011;58751;50.708;7.134;2023-03-01T10:56:48;12.90;;;10.50;;
71091;SDS011;58751;50.708;7.134;2023-03-01T10:59:20;14.77;;;10.82;;
71091;SDS011;58751;50.708;7.134;2023-03-01T11:01:46;11.95;;;9.93;;
71091;SDS011;58751;50.708;7.134;2023-03-01T11:04:25;13.88;;;9.75;;
71091;SDS011;58751;50.708;7.134;2023-03-01T11:06:58;14.53;;;10.20;;
71091;SDS011;58751;50.708;7.134;2023-03-01T11:09:25;15.15;;;9.70;;
71091;SDS011;58751;50.708;7.134;2023-03-01T11:11:51;15.68;;;9.85;;
71091;SDS011;58751;50.708;7.134;2023-03-01T11:14:17;12.77;;;9.63;;
71091;SDS011;58751;50.708;7.134;2023-03-01T11:16:44;13.88;;;10.10;;
71091;SDS011;58751;50.708;7.134;2023-03-01T11:19:14;13.55;;;10.55;;
71091;SDS011;58751;50.708;7.134;2023-03-01T11:21:41;12.70;;;9.68;;
71091;SDS011;58751;50.708;7.134;2023-03-01T11:24:09;12.10;;;10.57;;
71091;SDS011;58751;50.708;7.134;2023-03-01T11:26:38;12.60;;;10.57;;
71091;SDS011;58751;50.708;7.134;2023-03-01T11:29:05;9.48;;;8.45;;
71091;SDS011;58751;50.708;7.134;2023-03-01T11:31:32;12.98;;;9.60;;
71091;SDS011;58751;50.708;7.134;2023-03-01T11:33:59;10.80;;;9.70;;
71091;SDS011;58751;50.708;7.134;2023-03-01T11:36:28;11.63;;;10.30;;
71091;SDS011;58751;50.708;7.134;2023-03-01T11:38:55;12.15;;;8.90;;
71091;SDS011;58751;50.708;7.134;2023-03-01T11:41:21;9.83;;;8.70;;
71091;SDS011;58751;50.708;7.134;2023-03-01T11:43:51;9.73;;;8.73;;
71091;SDS011;58751;50.708;7.134;2023-03-01T11:46:28;17.27;;;10.10;;
71091;SDS011;58751;50.708;7.134;2023-03-01T11:49:00;9.60;;;8.00;;
71091;SDS011;58751;50.708;7.134;2023-03-01T11:51:34;10.90;;;9.15;;
71091;SDS011;58751;50.708;7.134;2023-03-01T11:54:05;10.70;;;9.60;;
71091;SDS011;58751;50.708;7.134;2023-03-01T11:56:31;9.20;;;8.30;;
71091;SDS011;58751;50.708;7.134;2023-03-01T11:59:08;9.57;;;8.00;;
71091;SDS011;58751;50.708;7.134;2023-03-01T12:01:42;9.32;;;7.93;;
71091;SDS011;58751;50.708;7.134;2023-03-01T12:04:23;8.82;;;7.30;;
71091;SDS011;58751;50.708;7.134;2023-03-01T12:06:55;10.60;;;9.52;;
71091;SDS011;58751;50.708;7.134;2023-03-01T12:09:25;8.95;;;7.22;;
71091;SDS011;58751;50.708;7.134;2023-03-01T12:12:02;8.05;;;7.35;;
71091;SDS011;58751;50.708;7.134;2023-03-01T12:14:34;9.63;;;7.72;;
71091;SDS011;58751;50.708;7.134;2023-03-01T12:17:06;7.40;;;6.57;;
71091;SDS011;58751;50.708;7.134;2023-03-01T12:19:37;11.40;;;8.13;;
71091;SDS011;58751;50.708;7.134;2023-03-01T12:22:13;10.70;;;7.90;;
71091;SDS011;58751;50.708;7.134;2023-03-01T12:24:51;9.98;;;8.07;;
71091;SDS011;58751;50.708;7.134;2023-03-01T12:27:26;12.68;;;9.82;;
71091;SDS011;58751;50.708;7.134;2023-03-01T12:29:59;11.30;;;8.43;;
71091;SDS011;58751;50.708;7.134;2023-03-01T12:32:33;9.43;;;7.43;;
71091;SDS011;58751;50.708;7.134;2023-03-01T12:35:03;8.70;;;7.53;;
71091;SDS011;58751;50.708;7.134;2023-03-01T12:37:33;7.97;;;7.18;;
71091;SDS011;58751;50.708;7.134;2023-03-01T12:40:03;8.38;;;6.97;;
71091;SDS011;58751;50.708;7.134;2023-03-01T12:42:39;11.48;;;6.40;;
71091;SDS011;58751;50.708;7.134;2023-03-01T12:47:55;8.20;;;7.22;;
71091;SDS011;58751;50.708;7.134;2023-03-01T12:50:24;7.55;;;5.82;;
71091;SDS011;58751;50.708;7.134;2023-03-01T12:52:51;8.95;;;7.18;;
71091;SDS011;58751;50.708;7.134;2023-03-01T12:55:19;8.20;;;5.95;;
71091;SDS011;58751;50.708;7.134;2023-03-01T12:57:48;8.07;;;5.83;;
71091;SDS011;58751;50.708;7.134;2023-03-01T13:00:21;8.20;;;7.07;;
71091;SDS011;58751;50.708;7.134;2023-03-01T13:02:52;9.20;;;7.20;;
71091;SDS011;58751;50.708;7.134;2023-03-01T13:05:24;8.00;;;6.70;;
71091;SDS011;58751;50.708;7.134;2023-03-01T13:07:53;7.00;;;6.30;;
71091;SDS011;58751;50.708;7.134;2023-03-01T13:10:21;8.07;;;6.32;;
71091;SDS011;58751;50.708;7.134;2023-03-01T13:12:51;9.73;;;7.00;;
71091;SDS011;58751;50.708;7.134;2023-03-01T13:15:26;7.45;;;6.70;;
71091;SDS011;58751;50.708;7.134;2023-03-01T13:17:52;7.45;;;5.10;;
71091;SDS011;58751;50.708;7.134;2023-03-01T13:20:18;7.00;;;6.03;;
71091;SDS011;58751;50.708;7.134;2023-03-01T13:22:46;8.98;;;6.63;;
71091;SDS011;58751;50.708;7.134;2023-03-01T13:25:13;6.00;;;5.35;;
71091;SDS011;58751;50.708;7.134;2023-03-01T13:27:38;6.78;;;5.70;;
71091;SDS011;58751;50.708;7.134;2023-03-01T13:30:11;10.27;;;7.43;;
71091;SDS011;58751;50.708;7.134;2023-03-01T13:32:51;8.23;;;6.63;;
71091;SDS011;58751;50.708;7.134;2023-03-01T13:35:40;8.80;;;6.85;;
71091;SDS011;58751;50.708;7.134;2023-03-01T13:43:30;8.25;;;6.80;;
71091;SDS011;58751;50.708;7.134;2023-03-01T13:45:55;6.47;;;5.88;;
71091;SDS011;58751;50.708;7.134;2023-03-01T13:48:25;8.50;;;6.35;;
71091;SDS011;58751;50.708;7.134;2023-03-01T13:50:51;6.78;;;6.10;;
71091;SDS011;58751;50.708;7.134;2023-03-01T13:53:18;7.47;;;5.65;;
71091;SDS011;58751;50.708;7.134;2023-03-01T13:55:44;7.57;;;5.78;;
71091;SDS011;58751;50.708;7.134;2023-03-01T13:58:19;6.32;;;5.72;;
71091;SDS011;58751;50.708;7.134;2023-03-01T14:00:45;7.45;;;5.65;;
71091;SDS011;58751;50.708;7.134;2023-03-01T14:03:11;6.20;;;5.20;;
71091;SDS011;58751;50.708;7.134;2023-03-01T14:05:38;6.00;;;5.40;;
71091;SDS011;58751;50.708;7.134;2023-03-01T14:08:04;7.35;;;5.95;;
71091;SDS011;58751;50.708;7.134;2023-03-01T14:10:32;7.70;;;6.30;;
71091;SDS011;58751;50.708;7.134;2023-03-01T14:13:01;8.07;;;5.20;;
71091;SDS011;58751;50.708;7.134;2023-03-01T14:15:29;6.55;;;5.00;;
71091;SDS011;58751;50.708;7.134;2023-03-01T14:17:58;7.75;;;5.43;;
71091;SDS011;58751;50.708;7.134;2023-03-01T14:20:25;9.77;;;7.63;;
71091;SDS011;58751;50.708;7.134;2023-03-01T14:22:53;6.97;;;6.25;;
71091;SDS011;58751;50.708;7.134;2023-03-01T14:25:20;7.95;;;6.47;;
71091;SDS011;58751;50.708;7.134;2023-03-01T14:27:51;6.57;;;5.60;;
71091;SDS011;58751;50.708;7.134;2023-03-01T14:30:17;9.13;;;7.00;;
71091;SDS011;58751;50.708;7.134;2023-03-01T14:32:48;9.00;;;6.30;;
71091;SDS011;58751;50.708;7.134;2023-03-01T14:35:19;9.45;;;7.15;;